Time,TemperatureF,DewpointF,PressureIn,WindDirection,WindDirectionDegrees,WindSpeedMPH,WindSpeedGustMPH,Humidity,HourlyPrecipIn,Conditions,Clouds,dailyrainin,SoftwareType,DateUTC
2013-04-28 00:00:00,43.9,41.4,30.37,WSW,253,0.0,0.0,91,0.00,,,0.00,HR-IXPWINDi_r2_v1.2.,2013-04-28 04:00:00,
2013-04-28 00:01:00,43.9,41.4,30.37,WSW,253,0.0,0.0,91,0.00,,,0.00,HR-IXPWINDi_r2_v1.2.,2013-04-28 04:01:00,
2013-04-28 00:06:00,43.8,41.3,30.37,WSW,253,0.0,1.0,91,0.00,,,0.00,HR-IXPWINDi_r2_v1.2.,2013-04-28 04:06:00,
2013-04-28 00:11:00,43.3,40.8,30.37,WSW,255,0.0,1.0,91,0.00,,,0.00,HR-IXPWINDi_r2_v1.2.,2013-04-28 04:11:00,
2013-04-28 00:17:00,43.3,40.8,30.37,WSW,256,0.0,1.0,91,0.00,,,0.00,HR-IXPWINDi_r2_v1.2.,2013-04-28 04:17:00,
2013-04-28 00:22:00,43.5,41.3,30.37,WSW,256,0.0,1.0,92,0.00,,,0.00,HR-IXPWINDi_r2_v1.2.,2013-04-28 04:22:00,
2013-04-28 00:27:00,43.7,41.5,30.37,WSW,256,0.0,1.0,92,0.00,,,0.00,HR-IXPWINDi_r2_v1.2.,2013-04-28 04:27:00,
2013-04-28 00:32:00,43.9,41.7,30.37,WSW,256,0.0,1.0,92,0.00,,,0.00,HR-IXPWINDi_r2_v1.2.,2013-04-28 04:32:00,
2013-04-28 00:37:00,43.7,41.5,30.37,WSW,255,0.0,0.0,92,0.00,,,0.00,HR-IXPWINDi_r2_v1.2.,2013-04-28 04:37:00,
2013-04-28 00:43:00,43.9,41.7,30.37,WSW,256,0.0,0.0,92,0.00,,,0.00,HR-IXPWINDi_r2_v1.2.,2013-04-28 04:43:00,
2013-04-28 00:48:00,44.1,41.9,30.37,WSW,256,0.0,0.0,92,0.00,,,0.00,HR-IXPWINDi_r2_v1.2.,2013-04-28 04:48:00,
2013-04-28 00:53:00,44.1,41.9,30.37,NW,311,1.0,2.0,92,0.00,,,0.00,HR-IXPWINDi_r2_v1.2.,2013-04-28 04:53:00,
2013-04-28 00:58:00,44.2,41.7,30.36,NW,311,0.0,2.0,91,0.00,,,0.00,HR-IXPWINDi_r2_v1.2.,2013-04-28 04:58:00,
2013-04-28 01:04:00,44.1,41.9,30.37,NW,312,0.0,1.0,92,0.00,,,0.00,HR-IXPWINDi_r2_v1.2.,2013-04-28 05:04:00,
2013-04-28 01:09:00,44.1,41.9,30.37,NW,311,0.0,1.0,92,0.00,,,0.00,HR-IXPWINDi_r2_v1.2.,2013-04-28 05:09:00,
2013-04-28 01:14:00,44.3,42.1,30.37,NW,312,0.0,1.0,92,0.00,,,0.00,HR-IXPWINDi_r2_v1.2.,2013-04-28 05:14:00,
2013-04-28 01:19:00,44.2,41.7,30.37,NW,304,1.0,1.0,91,0.00,,,0.00,HR-IXPWINDi_r2_v1.2.,2013-04-28 05:19:00,
2013-04-28 01:24:00,44.1,41.6,30.36,NW,312,1.0,2.0,91,0.00,,,0.00,HR-IXPWINDi_r2_v1.2.,2013-04-28 05:24:00,
2013-04-28 01:30:00,43.9,41.7,30.36,NW,309,0.0,2.0,92,0.00,,,0.00,HR-IXPWINDi_r2_v1.2.,2013-04-28 05:30:00,
2013-04-28 01:35:00,44.0,41.8,30.36,NW,308,1.0,2.0,92,0.00,,,0.00,HR-IXPWINDi_r2_v1.2.,2013-04-28 05:35:00,
2013-04-28 01:40:00,44.2,42.0,30.36,WNW,288,1.0,2.0,92,0.00,,,0.00,HR-IXPWINDi_r2_v1.2.,2013-04-28 05:40:00,
2013-04-28 01:45:00,44.5,42.3,30.36,WNW,302,3.0,4.0,92,0.00,,,0.00,HR-IXPWINDi_r2_v1.2.,2013-04-28 05:45:00,
2013-04-28 01:50:00,44.7,42.5,30.36,WNW,300,1.0,4.0,92,0.00,,,0.00,HR-IXPWINDi_r2_v1.2.,2013-04-28 05:50:00,
2013-04-28 01:55:00,44.5,42.0,30.36,NW,311,0.0,3.0,91,0.00,,,0.00,HR-IXPWINDi_r2_v1.2.,2013-04-28 05:55:00,
2013-04-28 02:00:00,44.3,42.1,30.36,NW,311,0.0,3.0,92,0.00,,,0.00,HR-IXPWINDi_r2_v1.2.,2013-04-28 06:00:00,
2013-04-28 02:05:00,44.1,41.9,30.36,NW,311,0.0,1.0,92,0.00,,,0.00,HR-IXPWINDi_r2_v1.2.,2013-04-28 06:05:00,
2013-04-28 02:11:00,43.9,41.7,30.36,NW,311,0.0,0.0,92,0.00,,,0.00,HR-IXPWINDi_r2_v1.2.,2013-04-28 06:11:00,
2013-04-28 02:16:00,43.5,41.0,30.36,NNW,340,1.0,2.0,91,0.00,,,0.00,HR-IXPWINDi_r2_v1.2.,2013-04-28 06:16:00,
2013-04-28 02:21:00,42.9,40.7,30.35,North,350,1.0,2.0,92,0.00,,,0.00,HR-IXPWINDi_r2_v1.2.,2013-04-28 06:21:00,
2013-04-28 02:26:00,42.6,40.7,30.35,North,4,1.0,2.0,93,0.00,,,0.00,HR-IXPWINDi_r2_v1.2.,2013-04-28 06:26:00,
2013-04-28 02:31:00,42.6,40.7,30.35,North,4,1.0,2.0,93,0.00,,,0.00,HR-IXPWINDi_r2_v1.2.,2013-04-28 06:31:00,
2013-04-28 02:36:00,42.4,40.7,30.35,NNW,335,2.0,2.0,94,0.00,,,0.00,HR-IXPWINDi_r2_v1.2.,2013-04-28 06:36:00,
2013-04-28 02:41:00,42.5,40.8,30.35,NW,321,2.0,3.0,94,0.00,,,0.00,HR-IXPWINDi_r2_v1.2.,2013-04-28 06:41:00,
2013-04-28 02:46:00,42.6,40.9,30.35,NW,316,1.0,3.0,94,0.00,,,0.00,HR-IXPWINDi_r2_v1.2.,2013-04-28 06:46:00,
2013-04-28 02:52:00,42.4,40.7,30.35,NNW,335,1.0,3.0,94,0.00,,,0.00,HR-IXPWINDi_r2_v1.2.,2013-04-28 06:52:00,
2013-04-28 02:57:00,42.3,40.6,30.35,NW,318,1.0,3.0,94,0.00,,,0.00,HR-IXPWINDi_r2_v1.2.,2013-04-28 06:57:00,
2013-04-28 03:02:00,42.3,40.6,30.35,NW,311,0.0,3.0,94,0.00,,,0.00,HR-IXPWINDi_r2_v1.2.,2013-04-28 07:02:00,
2013-04-28 03:07:00,42.3,40.6,30.35,NW,315,1.0,2.0,94,0.00,,,0.00,HR-IXPWINDi_r2_v1.2.,2013-04-28 07:07:00,
2013-04-28 03:13:00,42.4,41.0,30.35,NW,314,2.0,3.0,95,0.00,,,0.00,HR-IXPWINDi_r2_v1.2.,2013-04-28 07:13:00,
2013-04-28 03:18:00,42.4,41.0,30.35,NNW,338,0.0,3.0,95,0.00,,,0.00,HR-IXPWINDi_r2_v1.2.,2013-04-28 07:18:00,
2013-04-28 03:23:00,41.8,40.1,30.35,NE,43,1.0,2.0,94,0.00,,,0.00,HR-IXPWINDi_r2_v1.2.,2013-04-28 07:23:00,
2013-04-28 03:28:00,41.8,40.4,30.35,NE,43,0.0,1.0,95,0.00,,,0.00,HR-IXPWINDi_r2_v1.2.,2013-04-28 07:28:00,
2013-04-28 03:33:00,41.9,40.5,30.35,NW,313,1.0,2.0,95,0.00,,,0.00,HR-IXPWINDi_r2_v1.2.,2013-04-28 07:33:00,
2013-04-28 03:38:00,42.2,40.8,30.35,NW,322,1.0,2.0,95,0.00,,,0.00,HR-IXPWINDi_r2_v1.2.,2013-04-28 07:38:00,
2013-04-28 03:43:00,41.7,40.3,30.34,NNE,16,0.0,1.0,95,0.00,,,0.00,HR-IXPWINDi_r2_v1.2.,2013-04-28 07:43:00,
2013-04-28 03:48:00,41.6,40.2,30.34,NNE,15,0.0,1.0,95,0.00,,,0.00,HR-IXPWINDi_r2_v1.2.,2013-04-28 07:48:00,
2013-04-28 03:54:00,42.1,41.0,30.34,NNE,15,0.0,1.0,96,0.00,,,0.00,HR-IXPWINDi_r2_v1.2.,2013-04-28 07:54:00,
2013-04-28 03:59:00,41.2,39.6,30.34,ENE,65,2.0,2.0,94,0.00,,,0.00,HR-IXPWINDi_r2_v1.2.,2013-04-28 07:59:00,
2013-04-28 04:04:00,41.3,39.9,30.34,NE,36,2.0,4.0,95,0.00,,,0.00,HR-IXPWINDi_r2_v1.2.,2013-04-28 08:04:00,
2013-04-28 04:09:00,41.7,40.6,30.34,NNE,14,1.0,4.0,96,0.00,,,0.00,HR-IXPWINDi_r2_v1.2.,2013-04-28 08:09:00,
2013-04-28 04:14:00,41.6,40.5,30.34,NNE,15,0.0,2.0,96,0.00,,,0.00,HR-IXPWINDi_r2_v1.2.,2013-04-28 08:14:00,
2013-04-28 04:20:00,41.5,40.4,30.34,NNE,15,0.0,2.0,96,0.00,,,0.00,HR-IXPWINDi_r2_v1.2.,2013-04-28 08:20:00,
2013-04-28 04:25:00,41.2,39.8,30.34,NNE,26,1.0,2.0,95,0.00,,,0.00,HR-IXPWINDi_r2_v1.2.,2013-04-28 08:25:00,
2013-04-28 04:30:00,41.4,40.3,30.34,NNE,27,0.0,2.0,96,0.00,,,0.00,HR-IXPWINDi_r2_v1.2.,2013-04-28 08:30:00,
2013-04-28 04:35:00,41.3,40.2,30.34,NNE,27,0.0,2.0,96,0.00,,,0.00,HR-IXPWINDi_r2_v1.2.,2013-04-28 08:35:00,
2013-04-28 04:40:00,41.3,40.2,30.34,NNE,27,0.0,1.0,96,0.00,,,0.00,HR-IXPWINDi_r2_v1.2.,2013-04-28 08:40:00,
2013-04-28 04:45:00,41.3,40.2,30.34,NNE,27,0.0,1.0,96,0.00,,,0.00,HR-IXPWINDi_r2_v1.2.,2013-04-28 08:45:00,
2013-04-28 04:50:00,41.4,40.3,30.34,NNE,27,0.0,1.0,96,0.00,,,0.00,HR-IXPWINDi_r2_v1.2.,2013-04-28 08:50:00,
2013-04-28 04:56:00,41.4,40.3,30.34,NNE,26,2.0,2.0,96,0.00,,,0.00,HR-IXPWINDi_r2_v1.2.,2013-04-28 08:56:00,
2013-04-28 05:01:00,41.1,40.0,30.34,NNE,25,2.0,3.0,96,0.00,,,0.00,HR-IXPWINDi_r2_v1.2.,2013-04-28 09:01:00,
2013-04-28 05:06:00,41.3,40.2,30.34,NNE,29,1.0,3.0,96,0.00,,,0.00,HR-IXPWINDi_r2_v1.2.,2013-04-28 09:06:00,
2013-04-28 05:11:00,41.1,40.0,30.34,NNE,29,0.0,2.0,96,0.00,,,0.00,HR-IXPWINDi_r2_v1.2.,2013-04-28 09:11:00,
2013-04-28 05:17:00,41.1,40.0,30.34,NNE,29,0.0,1.0,96,0.00,,,0.00,HR-IXPWINDi_r2_v1.2.,2013-04-28 09:17:00,
2013-04-28 05:22:00,40.9,39.8,30.33,North,8,1.0,1.0,96,0.00,,,0.00,HR-IXPWINDi_r2_v1.2.,2013-04-28 09:22:00,
2013-04-28 05:27:00,40.4,39.3,30.33,North,8,1.0,2.0,96,0.00,,,0.00,HR-IXPWINDi_r2_v1.2.,2013-04-28 09:27:00,
2013-04-28 05:32:00,40.3,39.2,30.33,North,4,1.0,2.0,96,0.00,,,0.00,HR-IXPWINDi_r2_v1.2.,2013-04-28 09:32:00,
2013-04-28 05:37:00,40.1,39.0,30.33,North,5,1.0,2.0,96,0.00,,,0.00,HR-IXPWINDi_r2_v1.2.,2013-04-28 09:37:00,
2013-04-28 05:43:00,40.1,39.0,30.33,North,5,1.0,2.0,96,0.00,,,0.00,HR-IXPWINDi_r2_v1.2.,2013-04-28 09:43:00,
2013-04-28 05:48:00,39.6,38.5,30.33,North,4,1.0,2.0,96,0.00,,,0.00,HR-IXPWINDi_r2_v1.2.,2013-04-28 09:48:00,
2013-04-28 05:53:00,39.5,38.4,30.33,North,4,2.0,2.0,96,0.00,,,0.00,HR-IXPWINDi_r2_v1.2.,2013-04-28 09:53:00,
2013-04-28 05:59:00,39.9,39.1,30.33,North,10,2.0,3.0,97,0.00,,,0.00,HR-IXPWINDi_r2_v1.2.,2013-04-28 09:59:00,
2013-04-28 06:04:00,39.8,39.0,30.33,North,11,1.0,3.0,97,0.00,,,0.00,HR-IXPWINDi_r2_v1.2.,2013-04-28 10:04:00,
2013-04-28 06:09:00,40.0,39.2,30.34,North,6,1.0,2.0,97,0.00,,,0.00,HR-IXPWINDi_r2_v1.2.,2013-04-28 10:09:00,
2013-04-28 06:14:00,40.1,39.3,30.34,North,354,0.0,2.0,97,0.00,,,0.00,HR-IXPWINDi_r2_v1.2.,2013-04-28 10:14:00,
2013-04-28 06:19:00,40.5,39.7,30.34,North,354,0.0,2.0,97,0.00,,,0.00,HR-IXPWINDi_r2_v1.2.,2013-04-28 10:19:00,
2013-04-28 06:24:00,40.6,39.8,30.34,NNW,345,0.0,1.0,97,0.00,,,0.00,HR-IXPWINDi_r2_v1.2.,2013-04-28 10:24:00,
2013-04-28 06:30:00,40.8,40.0,30.34,NNW,345,0.0,1.0,97,0.00,,,0.00,HR-IXPWINDi_r2_v1.2.,2013-04-28 10:30:00,
2013-04-28 06:35:00,41.1,40.3,30.35,NNW,345,0.0,1.0,97,0.00,,,0.00,HR-IXPWINDi_r2_v1.2.,2013-04-28 10:35:00,
2013-04-28 06:40:00,41.4,40.6,30.35,NNW,346,0.0,1.0,97,0.00,,,0.00,HR-IXPWINDi_r2_v1.2.,2013-04-28 10:40:00,
2013-04-28 06:45:00,42.3,41.5,30.35,NNW,345,0.0,0.0,97,0.00,,,0.00,HR-IXPWINDi_r2_v1.2.,2013-04-28 10:45:00,
2013-04-28 06:50:00,42.8,42.0,30.35,NNW,346,0.0,0.0,97,0.00,,,0.00,HR-IXPWINDi_r2_v1.2.,2013-04-28 10:50:00,
2013-04-28 06:56:00,43.2,42.4,30.35,NNW,346,0.0,1.0,97,0.00,,,0.00,HR-IXPWINDi_r2_v1.2.,2013-04-28 10:56:00,
2013-04-28 07:01:00,43.7,42.8,30.35,NNW,346,0.0,1.0,97,0.00,,,0.00,HR-IXPWINDi_r2_v1.2.,2013-04-28 11:01:00,
2013-04-28 07:06:00,44.4,43.5,30.35,ENE,63,2.0,2.0,97,0.00,,,0.00,HR-IXPWINDi_r2_v1.2.,2013-04-28 11:06:00,
2013-04-28 07:11:00,44.9,44.0,30.36,ENE,63,0.0,2.0,97,0.00,,,0.00,HR-IXPWINDi_r2_v1.2.,2013-04-28 11:11:00,
2013-04-28 07:16:00,45.3,44.4,30.36,ENE,63,1.0,2.0,97,0.00,,,0.00,HR-IXPWINDi_r2_v1.2.,2013-04-28 11:16:00,
2013-04-28 07:21:00,45.9,45.0,30.36,ENE,63,0.0,1.0,97,0.00,,,0.00,HR-IXPWINDi_r2_v1.2.,2013-04-28 11:21:00,
2013-04-28 07:27:00,46.9,46.0,30.36,ENE,63,0.0,1.0,97,0.00,,,0.00,HR-IXPWINDi_r2_v1.2.,2013-04-28 11:27:00,
2013-04-28 07:32:00,47.6,46.5,30.36,SW,228,0.0,0.0,96,0.00,,,0.00,HR-IXPWINDi_r2_v1.2.,2013-04-28 11:32:00,
2013-04-28 07:37:00,48.3,47.1,30.36,West,274,1.0,2.0,96,0.00,,,0.00,HR-IXPWINDi_r2_v1.2.,2013-04-28 11:37:00,
2013-04-28 07:42:00,48.7,47.3,30.37,WSW,250,1.0,3.0,95,0.00,,,0.00,HR-IXPWINDi_r2_v1.2.,2013-04-28 11:42:00,
2013-04-28 07:48:00,49.1,47.1,30.37,WNW,283,1.0,3.0,93,0.00,,,0.00,HR-IXPWINDi_r2_v1.2.,2013-04-28 11:48:00,
2013-04-28 07:53:00,49.8,47.5,30.37,SSW,204,0.0,2.0,92,0.00,,,0.00,HR-IXPWINDi_r2_v1.2.,2013-04-28 11:53:00,
2013-04-28 07:58:00,50.4,47.5,30.37,SSW,201,1.0,2.0,90,0.00,,,0.00,HR-IXPWINDi_r2_v1.2.,2013-04-28 11:58:00,
2013-04-28 08:03:00,50.8,47.6,30.37,South,176,2.0,3.0,89,0.00,,,0.00,HR-IXPWINDi_r2_v1.2.,2013-04-28 12:03:00,
2013-04-28 08:08:00,51.1,47.6,30.38,South,191,3.0,3.0,88,0.00,,,0.00,HR-IXPWINDi_r2_v1.2.,2013-04-28 12:08:00,
2013-04-28 08:14:00,51.5,48.3,30.38,SE,145,5.0,6.0,89,0.00,,,0.00,HR-IXPWINDi_r2_v1.2.,2013-04-28 12:14:00,
2013-04-28 08:19:00,51.3,47.8,30.38,South,175,5.0,7.0,88,0.00,,,0.00,HR-IXPWINDi_r2_v1.2.,2013-04-28 12:19:00,
2013-04-28 08:24:00,51.0,47.5,30.38,South,180,3.0,7.0,88,0.00,,,0.00,HR-IXPWINDi_r2_v1.2.,2013-04-28 12:24:00,
2013-04-28 08:29:00,51.1,47.9,30.39,SSE,155,8.0,9.0,89,0.00,,,0.00,HR-IXPWINDi_r2_v1.2.,2013-04-28 12:29:00,
2013-04-28 08:35:00,50.4,47.2,30.39,South,169,8.0,9.0,89,0.00,,,0.00,HR-IXPWINDi_r2_v1.2.,2013-04-28 12:35:00,
2013-04-28 08:40:00,49.9,47.0,30.38,SSW,194,3.0,9.0,90,0.00,,,0.00,HR-IXPWINDi_r2_v1.2.,2013-04-28 12:40:00,
2013-04-28 08:45:00,49.9,47.3,30.39,SSE,156,5.0,8.0,91,0.00,,,0.00,HR-IXPWINDi_r2_v1.2.,2013-04-28 12:45:00,
2013-04-28 08:50:00,50.0,47.1,30.39,SSW,210,4.0,7.0,90,0.00,,,0.00,HR-IXPWINDi_r2_v1.2.,2013-04-28 12:50:00,
2013-04-28 08:55:00,49.8,46.9,30.39,SSW,207,3.0,7.0,90,0.00,,,0.00,HR-IXPWINDi_r2_v1.2.,2013-04-28 12:55:00,
2013-04-28 09:00:00,50.1,47.2,30.39,SE,145,5.0,6.0,90,0.00,,,0.00,HR-IXPWINDi_r2_v1.2.,2013-04-28 13:00:00,
2013-04-28 09:05:00,50.4,47.5,30.39,South,190,3.0,6.0,90,0.00,,,0.00,HR-IXPWINDi_r2_v1.2.,2013-04-28 13:05:00,
2013-04-28 09:10:00,50.6,47.4,30.39,SSE,155,5.0,6.0,89,0.00,,,0.00,HR-IXPWINDi_r2_v1.2.,2013-04-28 13:10:00,
2013-04-28 09:15:00,51.0,47.8,30.39,SSW,197,4.0,6.0,89,0.00,,,0.00,HR-IXPWINDi_r2_v1.2.,2013-04-28 13:15:00,
2013-04-28 09:21:00,51.0,47.5,30.39,SSE,148,6.0,7.0,88,0.00,,,0.00,HR-IXPWINDi_r2_v1.2.,2013-04-28 13:21:00,
2013-04-28 09:26:00,51.0,47.5,30.38,SSE,158,5.0,7.0,88,0.00,,,0.00,HR-IXPWINDi_r2_v1.2.,2013-04-28 13:26:00,
2013-04-28 09:31:00,51.0,47.5,30.38,SSE,152,3.0,8.0,88,0.00,,,0.00,HR-IXPWINDi_r2_v1.2.,2013-04-28 13:31:00,
2013-04-28 09:36:00,51.2,47.7,30.38,SSE,163,5.0,8.0,88,0.00,,,0.00,HR-IXPWINDi_r2_v1.2.,2013-04-28 13:36:00,
2013-04-28 09:41:00,51.3,47.8,30.38,SSE,166,5.0,7.0,88,0.00,,,0.00,HR-IXPWINDi_r2_v1.2.,2013-04-28 13:41:00,
2013-04-28 09:46:00,51.2,47.4,30.38,SE,138,7.0,7.0,87,0.00,,,0.00,HR-IXPWINDi_r2_v1.2.,2013-04-28 13:46:00,
2013-04-28 09:52:00,51.0,47.2,30.38,SSE,161,5.0,8.0,87,0.00,,,0.00,HR-IXPWINDi_r2_v1.2.,2013-04-28 13:52:00,
2013-04-28 09:57:00,51.0,47.5,30.38,SSE,165,5.0,8.0,88,0.00,,,0.00,HR-IXPWINDi_r2_v1.2.,2013-04-28 13:57:00,
2013-04-28 10:02:00,51.1,47.6,30.38,SE,144,4.0,8.0,88,0.00,,,0.00,HR-IXPWINDi_r2_v1.2.,2013-04-28 14:02:00,
2013-04-28 10:07:00,51.2,47.4,30.38,SSE,148,6.0,7.0,87,0.00,,,0.00,HR-IXPWINDi_r2_v1.2.,2013-04-28 14:07:00,
2013-04-28 10:13:00,51.0,47.2,30.38,SE,134,5.0,10.0,87,0.00,,,0.00,HR-IXPWINDi_r2_v1.2.,2013-04-28 14:13:00,
2013-04-28 10:18:00,50.9,47.1,30.38,SSE,153,6.0,10.0,87,0.00,,,0.00,HR-IXPWINDi_r2_v1.2.,2013-04-28 14:18:00,
2013-04-28 10:23:00,51.0,47.5,30.38,SSE,156,6.0,10.0,88,0.00,,,0.00,HR-IXPWINDi_r2_v1.2.,2013-04-28 14:23:00,
2013-04-28 10:28:00,50.9,47.4,30.38,SSE,154,7.0,10.0,88,0.00,,,0.00,HR-IXPWINDi_r2_v1.2.,2013-04-28 14:28:00,
2013-04-28 10:34:00,50.9,47.4,30.38,SE,146,6.0,11.0,88,0.00,,,0.00,HR-IXPWINDi_r2_v1.2.,2013-04-28 14:34:00,
2013-04-28 10:39:00,51.0,47.2,30.38,SSE,153,5.0,11.0,87,0.00,,,0.00,HR-IXPWINDi_r2_v1.2.,2013-04-28 14:39:00,
2013-04-28 10:44:00,50.8,47.3,30.38,SSE,148,6.0,11.0,88,0.00,,,0.00,HR-IXPWINDi_r2_v1.2.,2013-04-28 14:44:00,
2013-04-28 10:49:00,50.7,47.5,30.38,SSE,158,5.0,10.0,89,0.00,,,0.00,HR-IXPWINDi_r2_v1.2.,2013-04-28 14:49:00,
2013-04-28 10:54:00,51.0,47.8,30.38,SSE,151,6.0,10.0,89,0.00,,,0.00,HR-IXPWINDi_r2_v1.2.,2013-04-28 14:54:00,
2013-04-28 10:59:00,51.0,47.2,30.38,SSE,156,7.0,10.0,87,0.00,,,0.00,HR-IXPWINDi_r2_v1.2.,2013-04-28 14:59:00,
2013-04-28 11:05:00,51.0,47.5,30.39,SSE,160,7.0,10.0,88,0.00,,,0.00,HR-IXPWINDi_r2_v1.2.,2013-04-28 15:05:00,
2013-04-28 11:10:00,51.3,48.1,30.38,SSE,159,5.0,10.0,89,0.00,,,0.00,HR-IXPWINDi_r2_v1.2.,2013-04-28 15:10:00,
2013-04-28 11:15:00,51.6,48.1,30.38,SE,131,3.0,9.0,88,0.00,,,0.00,HR-IXPWINDi_r2_v1.2.,2013-04-28 15:15:00,
2013-04-28 11:20:00,51.6,47.8,30.38,SE,131,5.0,9.0,87,0.00,,,0.00,HR-IXPWINDi_r2_v1.2.,2013-04-28 15:20:00,
2013-04-28 11:25:00,51.2,47.7,30.38,SE,127,4.0,10.0,88,0.00,,,0.00,HR-IXPWINDi_r2_v1.2.,2013-04-28 15:25:00,
2013-04-28 11:30:00,51.4,47.9,30.37,SE,136,8.0,10.0,88,0.00,,,0.00,HR-IXPWINDi_r2_v1.2.,2013-04-28 15:30:00,
2013-04-28 11:35:00,51.6,48.1,30.37,South,175,4.0,9.0,88,0.00,,,0.00,HR-IXPWINDi_r2_v1.2.,2013-04-28 15:35:00,
2013-04-28 11:40:00,51.5,48.0,30.37,SSE,158,7.0,9.0,88,0.00,,,0.00,HR-IXPWINDi_r2_v1.2.,2013-04-28 15:40:00,
2013-04-28 11:46:00,51.4,47.9,30.37,South,169,5.0,11.0,88,0.00,,,0.00,HR-IXPWINDi_r2_v1.2.,2013-04-28 15:46:00,
2013-04-28 11:51:00,51.2,48.0,30.37,SSW,194,7.0,11.0,89,0.00,,,0.00,HR-IXPWINDi_r2_v1.2.,2013-04-28 15:51:00,
2013-04-28 11:56:00,50.7,47.2,30.37,South,174,8.0,9.0,88,0.00,,,0.00,HR-IXPWINDi_r2_v1.2.,2013-04-28 15:56:00,
2013-04-28 12:01:00,50.6,47.4,30.37,SSE,148,7.0,10.0,89,0.00,,,0.00,HR-IXPWINDi_r2_v1.2.,2013-04-28 16:01:00,
2013-04-28 12:07:00,50.7,47.2,30.37,SSE,165,7.0,10.0,88,0.00,,,0.00,HR-IXPWINDi_r2_v1.2.,2013-04-28 16:07:00,
2013-04-28 12:12:00,51.0,47.5,30.36,SSE,167,6.0,9.0,88,0.00,,,0.00,HR-IXPWINDi_r2_v1.2.,2013-04-28 16:12:00,
2013-04-28 12:17:00,51.2,47.1,30.36,SSE,164,5.0,9.0,86,0.00,,,0.00,HR-IXPWINDi_r2_v1.2.,2013-04-28 16:17:00,
2013-04-28 12:23:00,51.3,46.9,30.36,SSE,167,7.0,9.0,85,0.00,,,0.00,HR-IXPWINDi_r2_v1.2.,2013-04-28 16:23:00,
2013-04-28 12:28:00,51.5,46.5,30.36,SE,145,8.0,9.0,83,0.00,,,0.00,HR-IXPWINDi_r2_v1.2.,2013-04-28 16:28:00,
2013-04-28 12:33:00,51.9,46.8,30.36,South,175,6.0,9.0,83,0.00,,,0.00,HR-IXPWINDi_r2_v1.2.,2013-04-28 16:33:00,
2013-04-28 12:38:00,51.7,47.0,30.36,SSE,162,6.0,10.0,84,0.00,,,0.00,HR-IXPWINDi_r2_v1.2.,2013-04-28 16:38:00,
2013-04-28 12:43:00,51.6,46.2,30.36,SSE,166,9.0,11.0,82,0.00,,,0.00,HR-IXPWINDi_r2_v1.2.,2013-04-28 16:43:00,
2013-04-28 12:48:00,51.7,47.0,30.36,South,169,8.0,11.0,84,0.00,,,0.00,HR-IXPWINDi_r2_v1.2.,2013-04-28 16:48:00,
2013-04-28 12:54:00,51.6,46.5,30.36,SSE,164,8.0,12.0,83,0.00,,,0.00,HR-IXPWINDi_r2_v1.2.,2013-04-28 16:54:00,
2013-04-28 12:59:00,51.6,46.5,30.36,South,191,8.0,12.0,83,0.00,,,0.00,HR-IXPWINDi_r2_v1.2.,2013-04-28 16:59:00,
2013-04-28 13:04:00,51.8,47.1,30.36,South,190,5.0,11.0,84,0.00,,,0.00,HR-IXPWINDi_r2_v1.2.,2013-04-28 17:04:00,
2013-04-28 13:09:00,52.0,46.3,30.36,South,173,6.0,9.0,81,0.00,,,0.00,HR-IXPWINDi_r2_v1.2.,2013-04-28 17:09:00,
2013-04-28 13:14:00,52.1,46.7,30.36,South,181,6.0,10.0,82,0.00,,,0.00,HR-IXPWINDi_r2_v1.2.,2013-04-28 17:14:00,
2013-04-28 13:19:00,52.4,46.7,30.36,South,173,7.0,10.0,81,0.00,,,0.00,HR-IXPWINDi_r2_v1.2.,2013-04-28 17:19:00,
2013-04-28 13:25:00,52.4,47.0,30.36,SSW,194,5.0,10.0,82,0.00,,,0.00,HR-IXPWINDi_r2_v1.2.,2013-04-28 17:25:00,
2013-04-28 13:30:00,52.4,46.4,30.36,South,187,6.0,10.0,80,0.00,,,0.00,HR-IXPWINDi_r2_v1.2.,2013-04-28 17:30:00,
2013-04-28 13:35:00,52.4,46.7,30.35,South,186,4.0,10.0,81,0.00,,,0.00,HR-IXPWINDi_r2_v1.2.,2013-04-28 17:35:00,
2013-04-28 13:40:00,52.6,46.5,30.36,SSE,167,9.0,10.0,80,0.00,,,0.00,HR-IXPWINDi_r2_v1.2.,2013-04-28 17:40:00,
2013-04-28 13:45:00,52.6,46.9,30.35,South,191,7.0,10.0,81,0.00,,,0.00,HR-IXPWINDi_r2_v1.2.,2013-04-28 17:45:00,
2013-04-28 13:50:00,52.6,46.2,30.35,SSE,158,6.0,10.0,79,0.00,,,0.00,HR-IXPWINDi_r2_v1.2.,2013-04-28 17:50:00,
2013-04-28 13:56:00,52.9,46.5,30.35,SSE,159,9.0,10.0,79,0.00,,,0.00,HR-IXPWINDi_r2_v1.2.,2013-04-28 17:56:00,
2013-04-28 14:01:00,52.9,46.5,30.35,SSE,165,5.0,10.0,79,0.00,,,0.00,HR-IXPWINDi_r2_v1.2.,2013-04-28 18:01:00,
2013-04-28 14:06:00,52.8,46.1,30.35,SSE,161,6.0,10.0,78,0.00,,,0.00,HR-IXPWINDi_r2_v1.2.,2013-04-28 18:06:00,
2013-04-28 14:11:00,53.1,46.7,30.35,SSW,197,5.0,9.0,79,0.00,,,0.00,HR-IXPWINDi_r2_v1.2.,2013-04-28 18:11:00,
2013-04-28 14:16:00,53.0,45.9,30.35,SSE,162,7.0,11.0,77,0.00,,,0.00,HR-IXPWINDi_r2_v1.2.,2013-04-28 18:16:00,
2013-04-28 14:21:00,53.0,45.9,30.35,South,173,6.0,11.0,77,0.00,,,0.00,HR-IXPWINDi_r2_v1.2.,2013-04-28 18:21:00,
2013-04-28 14:26:00,53.0,45.2,30.35,South,170,7.0,11.0,75,0.00,,,0.00,HR-IXPWINDi_r2_v1.2.,2013-04-28 18:26:00,
2013-04-28 14:32:00,52.9,45.5,30.35,South,185,8.0,11.0,76,0.00,,,0.00,HR-IXPWINDi_r2_v1.2.,2013-04-28 18:32:00,
2013-04-28 14:37:00,52.9,46.2,30.35,South,169,7.0,11.0,78,0.00,,,0.00,HR-IXPWINDi_r2_v1.2.,2013-04-28 18:37:00,
2013-04-28 14:42:00,53.3,46.2,30.35,SSE,164,8.0,12.0,77,0.00,,,0.00,HR-IXPWINDi_r2_v1.2.,2013-04-28 18:42:00,
2013-04-28 14:47:00,53.2,44.7,30.35,South,189,9.0,12.0,73,0.00,,,0.00,HR-IXPWINDi_r2_v1.2.,2013-04-28 18:47:00,
2013-04-28 14:52:00,53.3,45.2,30.34,SSW,200,5.0,11.0,74,0.00,,,0.00,HR-IXPWINDi_r2_v1.2.,2013-04-28 18:52:00,
2013-04-28 14:58:00,53.4,44.9,30.34,South,191,5.0,11.0,73,0.00,,,0.00,HR-IXPWINDi_r2_v1.2.,2013-04-28 18:58:00,
2013-04-28 15:03:00,53.5,43.5,30.34,SSW,200,6.0,11.0,69,0.00,,,0.00,HR-IXPWINDi_r2_v1.2.,2013-04-28 19:03:00,
2013-04-28 15:08:00,53.9,43.9,30.34,SSW,192,6.0,10.0,69,0.00,,,0.00,HR-IXPWINDi_r2_v1.2.,2013-04-28 19:08:00,
2013-04-28 15:13:00,53.7,44.1,30.33,SSW,205,8.0,10.0,70,0.00,,,0.00,HR-IXPWINDi_r2_v1.2.,2013-04-28 19:13:00,
2013-04-28 15:18:00,53.4,44.2,30.33,SSW,210,7.0,10.0,71,0.00,,,0.00,HR-IXPWINDi_r2_v1.2.,2013-04-28 19:18:00,
2013-04-28 15:24:00,53.6,44.7,30.33,South,184,7.0,10.0,72,0.00,,,0.00,HR-IXPWINDi_r2_v1.2.,2013-04-28 19:24:00,
2013-04-28 15:29:00,53.8,43.1,30.33,SSW,210,9.0,11.0,67,0.00,,,0.00,HR-IXPWINDi_r2_v1.2.,2013-04-28 19:29:00,
2013-04-28 15:35:00,53.7,44.1,30.33,SSW,212,8.0,12.0,70,0.00,,,0.00,HR-IXPWINDi_r2_v1.2.,2013-04-28 19:35:00,
2013-04-28 15:40:00,53.4,42.7,30.33,SSW,204,7.0,12.0,67,0.00,,,0.00,HR-IXPWINDi_r2_v1.2.,2013-04-28 19:40:00,
2013-04-28 15:45:00,53.4,43.1,30.32,South,173,6.0,12.0,68,0.00,,,0.00,HR-IXPWINDi_r2_v1.2.,2013-04-28 19:45:00,
2013-04-28 15:50:00,53.7,43.3,30.32,South,186,7.0,12.0,68,0.00,,,0.00,HR-IXPWINDi_r2_v1.2.,2013-04-28 19:50:00,
2013-04-28 15:55:00,53.8,43.4,30.32,SSW,193,5.0,9.0,68,0.00,,,0.00,HR-IXPWINDi_r2_v1.2.,2013-04-28 19:55:00,
2013-04-28 16:01:00,54.0,43.2,30.32,South,191,6.0,10.0,67,0.00,,,0.00,HR-IXPWINDi_r2_v1.2.,2013-04-28 20:01:00,
2013-04-28 16:06:00,54.3,42.7,30.32,South,183,7.0,10.0,65,0.00,,,0.00,HR-IXPWINDi_r2_v1.2.,2013-04-28 20:06:00,
2013-04-28 16:11:00,54.1,42.5,30.32,SSW,212,8.0,11.0,65,0.00,,,0.00,HR-IXPWINDi_r2_v1.2.,2013-04-28 20:11:00,
2013-04-28 16:16:00,54.1,42.1,30.32,SSW,194,6.0,11.0,64,0.00,,,0.00,HR-IXPWINDi_r2_v1.2.,2013-04-28 20:16:00,
2013-04-28 16:21:00,54.2,40.6,30.32,SSW,205,7.0,11.0,60,0.00,,,0.00,HR-IXPWINDi_r2_v1.2.,2013-04-28 20:21:00,
2013-04-28 16:26:00,54.3,40.2,30.32,SSW,201,7.0,11.0,59,0.00,,,0.00,HR-IXPWINDi_r2_v1.2.,2013-04-28 20:26:00,
2013-04-28 16:31:00,54.3,40.7,30.32,SSW,201,8.0,10.0,60,0.00,,,0.00,HR-IXPWINDi_r2_v1.2.,2013-04-28 20:31:00,
2013-04-28 16:36:00,54.5,41.7,30.32,South,187,5.0,10.0,62,0.00,,,0.00,HR-IXPWINDi_r2_v1.2.,2013-04-28 20:36:00,
2013-04-28 16:41:00,54.2,40.6,30.32,SSW,211,7.0,10.0,60,0.00,,,0.00,HR-IXPWINDi_r2_v1.2.,2013-04-28 20:41:00,
2013-04-28 16:47:00,54.0,39.5,30.32,South,179,10.0,11.0,58,0.00,,,0.00,HR-IXPWINDi_r2_v1.2.,2013-04-28 20:47:00,
2013-04-28 16:52:00,53.9,39.0,30.31,SSW,210,10.0,11.0,57,0.00,,,0.00,HR-IXPWINDi_r2_v1.2.,2013-04-28 20:52:00,
2013-04-28 16:57:00,54.0,40.4,30.32,SSW,203,7.0,11.0,60,0.00,,,0.00,HR-IXPWINDi_r2_v1.2.,2013-04-28 20:57:00,
2013-04-28 17:02:00,54.1,38.3,30.31,SSW,210,6.0,11.0,55,0.00,,,0.00,HR-IXPWINDi_r2_v1.2.,2013-04-28 21:02:00,
2013-04-28 17:08:00,54.0,36.7,30.31,SSW,197,7.0,10.0,52,0.00,,,0.00,HR-IXPWINDi_r2_v1.2.,2013-04-28 21:08:00,
2013-04-28 17:13:00,53.9,38.5,30.32,SW,215,10.0,13.0,56,0.00,,,0.00,HR-IXPWINDi_r2_v1.2.,2013-04-28 21:13:00,
2013-04-28 17:18:00,53.8,38.9,30.32,SSW,203,8.0,13.0,57,0.00,,,0.00,HR-IXPWINDi_r2_v1.2.,2013-04-28 21:18:00,
2013-04-28 17:23:00,53.8,39.3,30.32,SSW,205,10.0,11.0,58,0.00,,,0.00,HR-IXPWINDi_r2_v1.2.,2013-04-28 21:23:00,
2013-04-28 17:29:00,53.6,40.0,30.32,South,174,8.0,11.0,60,0.00,,,0.00,HR-IXPWINDi_r2_v1.2.,2013-04-28 21:29:00,
2013-04-28 17:34:00,53.3,39.7,30.32,SSW,212,9.0,11.0,60,0.00,,,0.00,HR-IXPWINDi_r2_v1.2.,2013-04-28 21:34:00,
2013-04-28 17:39:00,53.3,40.2,30.32,SSW,197,4.0,11.0,61,0.00,,,0.00,HR-IXPWINDi_r2_v1.2.,2013-04-28 21:39:00,
2013-04-28 17:44:00,53.4,41.1,30.32,SSW,204,9.0,11.0,63,0.00,,,0.00,HR-IXPWINDi_r2_v1.2.,2013-04-28 21:44:00,
2013-04-28 17:50:00,53.1,40.0,30.32,South,188,6.0,11.0,61,0.00,,,0.00,HR-IXPWINDi_r2_v1.2.,2013-04-28 21:50:00,
2013-04-28 17:55:00,52.9,38.9,30.32,SSE,158,7.0,12.0,59,0.00,,,0.00,HR-IXPWINDi_r2_v1.2.,2013-04-28 21:55:00,
2013-04-28 18:00:00,52.9,38.9,30.32,SW,219,12.0,12.0,59,0.00,,,0.00,HR-IXPWINDi_r2_v1.2.,2013-04-28 22:00:00,
2013-04-28 18:05:00,52.7,39.6,30.32,SSW,207,9.0,12.0,61,0.00,,,0.00,HR-IXPWINDi_r2_v1.2.,2013-04-28 22:05:00,
2013-04-28 18:10:00,52.9,41.0,30.31,SSW,212,8.0,12.0,64,0.00,,,0.00,HR-IXPWINDi_r2_v1.2.,2013-04-28 22:10:00,
2013-04-28 18:15:00,52.8,41.3,30.32,SSW,205,9.0,12.0,65,0.00,,,0.00,HR-IXPWINDi_r2_v1.2.,2013-04-28 22:15:00,
2013-04-28 18:21:00,52.1,41.8,30.31,SW,220,10.0,12.0,68,0.00,,,0.00,HR-IXPWINDi_r2_v1.2.,2013-04-28 22:21:00,
2013-04-28 18:26:00,51.7,42.9,30.31,SSW,212,8.0,11.0,72,0.00,,,0.00,HR-IXPWINDi_r2_v1.2.,2013-04-28 22:26:00,
2013-04-28 18:31:00,51.4,43.7,30.31,SW,222,8.0,11.0,75,0.00,,,0.00,HR-IXPWINDi_r2_v1.2.,2013-04-28 22:31:00,
2013-04-28 18:36:00,51.3,44.6,30.31,SW,215,7.0,10.0,78,0.00,,,0.00,HR-IXPWINDi_r2_v1.2.,2013-04-28 22:36:00,
2013-04-28 18:41:00,51.2,44.9,30.31,SSW,201,6.0,10.0,79,0.00,,,0.00,HR-IXPWINDi_r2_v1.2.,2013-04-28 22:41:00,
2013-04-28 18:47:00,51.2,45.5,30.31,SSW,207,6.0,8.0,81,0.00,,,0.00,HR-IXPWINDi_r2_v1.2.,2013-04-28 22:47:00,
2013-04-28 18:52:00,51.0,45.6,30.30,SSW,201,4.0,8.0,82,0.00,,,0.00,HR-IXPWINDi_r2_v1.2.,2013-04-28 22:52:00,
2013-04-28 18:57:00,51.0,46.0,30.30,SSW,204,6.0,8.0,83,0.00,,,0.00,HR-IXPWINDi_r2_v1.2.,2013-04-28 22:57:00,
2013-04-28 19:02:00,51.1,46.7,30.30,SSW,205,6.0,6.0,85,0.00,,,0.00,HR-IXPWINDi_r2_v1.2.,2013-04-28 23:02:00,
2013-04-28 19:08:00,51.1,47.0,30.30,SSW,212,6.0,7.0,86,0.00,,,0.00,HR-IXPWINDi_r2_v1.2.,2013-04-28 23:08:00,
2013-04-28 19:13:00,50.9,46.8,30.30,SSW,207,7.0,8.0,86,0.00,,,0.00,HR-IXPWINDi_r2_v1.2.,2013-04-28 23:13:00,
2013-04-28 19:18:00,50.9,47.1,30.30,SSW,212,7.0,8.0,87,0.00,,,0.00,HR-IXPWINDi_r2_v1.2.,2013-04-28 23:18:00,
2013-04-28 19:23:00,50.9,47.4,30.30,SW,224,9.0,9.0,88,0.00,,,0.00,HR-IXPWINDi_r2_v1.2.,2013-04-28 23:23:00,
2013-04-28 19:29:00,51.0,47.5,30.30,SW,217,7.0,10.0,88,0.00,,,0.00,HR-IXPWINDi_r2_v1.2.,2013-04-28 23:29:00,
2013-04-28 19:34:00,50.9,47.4,30.30,SW,214,6.0,10.0,88,0.00,,,0.00,HR-IXPWINDi_r2_v1.2.,2013-04-28 23:34:00,
2013-04-28 19:39:00,50.9,47.4,30.30,SW,214,6.0,9.0,88,0.00,,,0.00,HR-IXPWINDi_r2_v1.2.,2013-04-28 23:39:00,
2013-04-28 19:44:00,50.8,47.6,30.30,SSW,212,4.0,9.0,89,0.00,,,0.00,HR-IXPWINDi_r2_v1.2.,2013-04-28 23:44:00,
2013-04-28 19:49:00,50.6,47.4,30.30,South,176,3.0,8.0,89,0.00,,,0.00,HR-IXPWINDi_r2_v1.2.,2013-04-28 23:49:00,
2013-04-28 19:54:00,50.4,47.5,30.30,South,181,2.0,5.0,90,0.00,,,0.00,HR-IXPWINDi_r2_v1.2.,2013-04-28 23:54:00,
2013-04-28 19:59:00,50.3,47.7,30.30,SE,132,2.0,4.0,91,0.00,,,0.00,HR-IXPWINDi_r2_v1.2.,2013-04-28 23:59:00,
2013-04-28 20:06:00,49.8,46.9,30.30,SE,136,1.0,3.0,90,0.00,,,0.00,HR-IXPWINDi_r2_v1.2.,2013-04-29 00:06:00,
2013-04-28 20:11:00,49.6,46.7,30.30,SSE,158,3.0,3.0,90,0.00,,,0.00,HR-IXPWINDi_r2_v1.2.,2013-04-29 00:11:00,
2013-04-28 20:16:00,49.4,46.5,30.30,SE,141,4.0,5.0,90,0.00,,,0.00,HR-IXPWINDi_r2_v1.2.,2013-04-29 00:16:00,
2013-04-28 20:21:00,49.3,46.4,30.30,SE,146,1.0,5.0,90,0.00,,,0.00,HR-IXPWINDi_r2_v1.2.,2013-04-29 00:21:00,
2013-04-28 20:26:00,49.2,46.3,30.30,SSE,148,3.0,5.0,90,0.00,,,0.00,HR-IXPWINDi_r2_v1.2.,2013-04-29 00:26:00,
2013-04-28 20:31:00,49.1,46.2,30.30,SSE,152,3.0,4.0,90,0.00,,,0.00,HR-IXPWINDi_r2_v1.2.,2013-04-29 00:31:00,
2013-04-28 20:37:00,49.1,46.5,30.30,SE,145,3.0,5.0,91,0.00,,,0.00,HR-IXPWINDi_r2_v1.2.,2013-04-29 00:37:00,
2013-04-28 20:42:00,49.1,46.5,30.30,East,88,1.0,5.0,91,0.00,,,0.00,HR-IXPWINDi_r2_v1.2.,2013-04-29 00:42:00,
2013-04-28 20:47:00,49.1,46.5,30.30,East,86,3.0,5.0,91,0.00,,,0.00,HR-IXPWINDi_r2_v1.2.,2013-04-29 00:47:00,
2013-04-28 20:52:00,49.0,46.4,30.30,ESE,110,1.0,4.0,91,0.00,,,0.00,HR-IXPWINDi_r2_v1.2.,2013-04-29 00:52:00,
2013-04-28 20:57:00,49.0,46.7,30.30,South,179,1.0,3.0,92,0.00,,,0.00,HR-IXPWINDi_r2_v1.2.,2013-04-29 00:57:00,
2013-04-28 21:03:00,49.0,46.7,30.30,SSE,155,1.0,4.0,92,0.00,,,0.00,HR-IXPWINDi_r2_v1.2.,2013-04-29 01:03:00,
2013-04-28 21:08:00,49.1,47.1,30.30,SSE,158,2.0,4.0,93,0.00,,,0.00,HR-IXPWINDi_r2_v1.2.,2013-04-29 01:08:00,
2013-04-28 21:13:00,49.1,47.1,30.31,SSE,156,3.0,5.0,93,0.00,,,0.00,HR-IXPWINDi_r2_v1.2.,2013-04-29 01:13:00,
2013-04-28 21:18:00,49.1,47.1,30.31,SSE,150,3.0,5.0,93,0.00,,,0.00,HR-IXPWINDi_r2_v1.2.,2013-04-29 01:18:00,
2013-04-28 21:24:00,49.1,47.1,30.31,South,190,3.0,5.0,93,0.00,,,0.00,HR-IXPWINDi_r2_v1.2.,2013-04-29 01:24:00,
2013-04-28 21:29:00,49.0,47.3,30.31,SSE,153,3.0,4.0,94,0.00,,,0.00,HR-IXPWINDi_r2_v1.2.,2013-04-29 01:29:00,
2013-04-28 21:34:00,49.0,47.3,30.31,SSE,162,2.0,4.0,94,0.00,,,0.00,HR-IXPWINDi_r2_v1.2.,2013-04-29 01:34:00,
2013-04-28 21:39:00,49.0,47.3,30.31,SSE,155,2.0,4.0,94,0.00,,,0.00,HR-IXPWINDi_r2_v1.2.,2013-04-29 01:39:00,
2013-04-28 21:45:00,49.0,47.3,30.31,SSE,155,3.0,5.0,94,0.00,,,0.00,HR-IXPWINDi_r2_v1.2.,2013-04-29 01:45:00,
2013-04-28 21:50:00,49.1,47.7,30.31,SSE,162,5.0,7.0,95,0.00,,,0.00,HR-IXPWINDi_r2_v1.2.,2013-04-29 01:50:00,
2013-04-28 21:55:00,49.2,47.8,30.31,SSE,158,3.0,7.0,95,0.00,,,0.00,HR-IXPWINDi_r2_v1.2.,2013-04-29 01:55:00,
2013-04-28 22:00:00,49.2,47.8,30.31,SSE,167,5.0,6.0,95,0.00,,,0.00,HR-IXPWINDi_r2_v1.2.,2013-04-29 02:00:00,
2013-04-28 22:05:00,49.1,47.7,30.31,SSE,160,4.0,6.0,95,0.00,,,0.00,HR-IXPWINDi_r2_v1.2.,2013-04-29 02:05:00,
2013-04-28 22:10:00,49.2,47.8,30.31,SSE,167,4.0,6.0,95,0.00,,,0.00,HR-IXPWINDi_r2_v1.2.,2013-04-29 02:10:00,
2013-04-28 22:16:00,49.1,47.7,30.31,SSE,148,4.0,5.0,95,0.00,,,0.00,HR-IXPWINDi_r2_v1.2.,2013-04-29 02:16:00,
2013-04-28 22:21:00,49.1,47.7,30.31,SSE,160,3.0,5.0,95,0.00,,,0.00,HR-IXPWINDi_r2_v1.2.,2013-04-29 02:21:00,
2013-04-28 22:26:00,49.1,47.7,30.31,SSE,162,2.0,4.0,95,0.00,,,0.00,HR-IXPWINDi_r2_v1.2.,2013-04-29 02:26:00,
2013-04-28 22:31:00,49.0,47.6,30.31,SSE,148,1.0,4.0,95,0.00,,,0.00,HR-IXPWINDi_r2_v1.2.,2013-04-29 02:31:00,
2013-04-28 22:36:00,48.9,47.5,30.31,SSW,200,2.0,4.0,95,0.00,,,0.00,HR-IXPWINDi_r2_v1.2.,2013-04-29 02:36:00,
2013-04-28 22:42:00,48.9,47.5,30.31,SSE,168,3.0,4.0,95,0.00,,,0.00,HR-IXPWINDi_r2_v1.2.,2013-04-29 02:42:00,
2013-04-28 22:47:00,48.9,47.5,30.31,SSE,159,2.0,4.0,95,0.00,,,0.00,HR-IXPWINDi_r2_v1.2.,2013-04-29 02:47:00,
2013-04-28 22:52:00,48.9,47.5,30.31,SSE,150,1.0,3.0,95,0.00,,,0.00,HR-IXPWINDi_r2_v1.2.,2013-04-29 02:52:00,
2013-04-28 22:57:00,48.9,47.5,30.31,SSW,204,1.0,3.0,95,0.00,,,0.00,HR-IXPWINDi_r2_v1.2.,2013-04-29 02:57:00,
2013-04-28 23:03:00,48.8,47.4,30.32,SSW,210,2.0,3.0,95,0.00,,,0.00,HR-IXPWINDi_r2_v1.2.,2013-04-29 03:03:00,
2013-04-28 23:08:00,48.8,47.4,30.32,SSE,168,2.0,2.0,95,0.00,,,0.00,HR-IXPWINDi_r2_v1.2.,2013-04-29 03:08:00,
2013-04-28 23:13:00,48.8,47.4,30.32,SSE,160,2.0,3.0,95,0.00,,,0.00,HR-IXPWINDi_r2_v1.2.,2013-04-29 03:13:00,
2013-04-28 23:18:00,48.7,47.3,30.32,South,179,2.0,4.0,95,0.00,,,0.00,HR-IXPWINDi_r2_v1.2.,2013-04-29 03:18:00,
2013-04-28 23:23:00,48.7,47.3,30.31,South,172,2.0,4.0,95,0.00,,,0.00,HR-IXPWINDi_r2_v1.2.,2013-04-29 03:23:00,
2013-04-28 23:28:00,48.7,47.3,30.32,SSE,166,3.0,3.0,95,0.00,,,0.00,HR-IXPWINDi_r2_v1.2.,2013-04-29 03:28:00,
2013-04-28 23:34:00,48.7,47.3,30.32,SSE,166,1.0,3.0,95,0.00,,,0.00,HR-IXPWINDi_r2_v1.2.,2013-04-29 03:34:00,
2013-04-28 23:39:00,48.7,47.3,30.32,South,169,1.0,3.0,95,0.00,,,0.00,HR-IXPWINDi_r2_v1.2.,2013-04-29 03:39:00,
2013-04-28 23:44:00,48.6,47.2,30.32,SSE,165,2.0,3.0,95,0.00,,,0.00,HR-IXPWINDi_r2_v1.2.,2013-04-29 03:44:00,
2013-04-28 23:49:00,48.7,47.3,30.32,SSE,156,1.0,3.0,95,0.00,,,0.00,HR-IXPWINDi_r2_v1.2.,2013-04-29 03:49:00,
2013-04-28 23:54:00,48.6,47.2,30.32,SSE,148,1.0,3.0,95,0.00,,,0.00,HR-IXPWINDi_r2_v1.2.,2013-04-29 03:54:00,
2013-04-28 23:59:00,48.6,47.2,30.32,SSE,165,2.0,2.0,95,0.00,,,0.00,HR-IXPWINDi_r2_v1.2.,2013-04-29 03:59:00,